Time;durP1;ratioP1;P1;durP2;ratioP2;P2;SDS_P1;SDS_P2;PMS_P1;PMS_P2;Temp;Humidity;BMP_temperature;BMP_pressure;BME280_temperature;BME280_humidity;BME280_pressure;Samples;Min_cycle;Max_cycle;Signal;HPM_P1;HPM_P2
2022/06/21 00:00:45;;;;;;;4.10;2.15;;;16.30;54.10;;;;;;5044928;28;20052;-56
2022/06/21 00:03:16;;;;;;;7.45;2.80;;;16.30;54.10;;;;;;5044257;28;20063;-56
2022/06/21 00:05:48;;;;;;;5.80;2.22;;;16.20;54.00;;;;;;5043566;28;20179;-57
2022/06/21 00:08:17;;;;;;;5.35;2.38;;;16.20;54.00;;;;;;5044340;28;20080;-57
2022/06/21 00:10:45;;;;;;;4.53;2.03;;;16.20;54.20;;;;;;5041639;28;20052;-59
2022/06/21 00:13:16;;;;;;;5.30;1.80;;;16.20;54.30;;;;;;5044115;28;20064;-57
2022/06/21 00:15:45;;;;;;;8.57;2.10;;;16.20;54.30;;;;;;5044539;28;20063;-56
2022/06/21 00:18:14;;;;;;;7.90;2.40;;;16.20;54.30;;;;;;5044226;28;20052;-59
2022/06/21 00:20:44;;;;;;;3.58;2.05;;;16.10;54.20;;;;;;5043132;28;20049;-59
2022/06/21 00:23:14;;;;;;;3.00;1.90;;;16.10;54.10;;;;;;5044064;28;20057;-59
2022/06/21 00:25:42;;;;;;;4.10;2.10;;;16.10;54.00;;;;;;5043283;28;20064;-58
2022/06/21 00:28:09;;;;;;;3.45;1.60;;;16.10;54.10;;;;;;5044203;28;20049;-56
2022/06/21 00:30:39;;;;;;;5.20;2.28;;;16.10;54.30;;;;;;5044467;28;20052;-56
2022/06/21 00:33:12;;;;;;;5.15;2.20;;;16.10;54.60;;;;;;5043854;28;20055;-57
2022/06/21 00:35:42;;;;;;;6.07;2.22;;;16.10;54.70;;;;;;5044205;28;20059;-59
2022/06/21 00:38:13;;;;;;;11.73;2.22;;;16.00;54.60;;;;;;5044565;28;20489;-54
2022/06/21 00:40:41;;;;;;;5.68;1.95;;;16.00;54.60;;;;;;5042124;28;20052;-55
2022/06/21 00:43:17;;;;;;;5.68;2.55;;;16.00;54.80;;;;;;5044437;28;20056;-56
2022/06/21 00:45:46;;;;;;;4.70;2.20;;;16.00;55.00;;;;;;5044097;28;20408;-57
2022/06/21 00:48:18;;;;;;;6.07;2.30;;;15.90;54.90;;;;;;5043180;28;20049;-55
2022/06/21 00:50:52;;;;;;;4.82;2.00;;;15.90;55.00;;;;;;5042256;28;20524;-54
2022/06/21 00:53:25;;;;;;;3.53;2.00;;;15.90;55.00;;;;;;5043709;28;20515;-58
2022/06/21 00:56:00;;;;;;;4.13;1.90;;;15.80;55.00;;;;;;5041136;28;20057;-57
2022/06/21 00:58:30;;;;;;;6.97;2.22;;;15.80;55.00;;;;;;5042782;28;20057;-58
2022/06/21 01:01:03;;;;;;;6.00;2.33;;;15.70;54.90;;;;;;5044191;28;20063;-56
2022/06/21 01:03:33;;;;;;;4.15;2.17;;;15.80;54.90;;;;;;5043824;28;20058;-56
2022/06/21 01:06:05;;;;;;;10.57;2.65;;;15.70;55.10;;;;;;5042600;28;20060;-57
2022/06/21 01:08:39;;;;;;;4.43;2.22;;;15.70;55.20;;;;;;5043303;28;20060;-59
2022/06/21 01:11:13;;;;;;;5.50;1.92;;;15.60;55.30;;;;;;5041026;28;20061;-57
2022/06/21 01:13:41;;;;;;;;;;;15.60;55.50;;;;;;5043849;28;20432;-55
2022/06/21 01:16:09;;;;;;;4.20;1.90;;;15.70;55.30;;;;;;5044493;28;19920;-56
2022/06/21 01:18:38;;;;;;;3.47;1.90;;;15.60;55.30;;;;;;5042720;28;20546;-57
2022/06/21 01:21:06;;;;;;;5.88;2.20;;;15.60;55.30;;;;;;5042227;28;20072;-52
2022/06/21 01:23:52;;;;;;;5.00;2.25;;;15.60;55.30;;;;;;5044362;28;20057;-56
2022/06/21 01:26:46;;;;;;;9.25;2.20;;;15.50;55.20;;;;;;5040880;28;20064;-55
2022/06/21 01:29:17;;;;;;;5.17;2.30;;;15.50;55.50;;;;;;5039843;28;20041;-57
2022/06/21 01:31:45;;;;;;;5.30;2.58;;;15.50;55.50;;;;;;5043472;28;20057;-57
2022/06/21 01:34:18;;;;;;;2.45;1.83;;;15.40;55.50;;;;;;5042134;28;20553;-56
2022/06/21 01:36:47;;;;;;;7.65;2.42;;;15.40;55.40;;;;;;5042227;28;20063;-58
2022/06/21 01:39:21;;;;;;;6.22;2.40;;;15.40;55.60;;;;;;5041005;28;20049;-55
2022/06/21 01:41:53;;;;;;;5.93;2.10;;;15.40;55.60;;;;;;5040507;28;20488;-55
2022/06/21 01:44:26;;;;;;;9.07;2.30;;;15.30;55.50;;;;;;5043923;28;20420;-56
2022/06/21 01:46:54;;;;;;;4.50;2.47;;;15.30;55.60;;;;;;5042490;28;20064;-54
2022/06/21 01:49:26;;;;;;;7.28;2.40;;;15.30;56.20;;;;;;5042101;28;20045;-55
2022/06/21 01:51:58;;;;;;;5.43;2.15;;;15.30;56.30;;;;;;5041447;28;20065;-56
2022/06/21 01:54:30;;;;;;;4.90;2.10;;;15.20;55.80;;;;;;5042553;28;20060;-57
2022/06/21 01:56:59;;;;;;;4.93;1.88;;;15.20;55.90;;;;;;5042142;28;20056;-57
2022/06/21 01:59:31;;;;;;;6.40;2.60;;;15.20;56.00;;;;;;5042164;28;20487;-56
2022/06/21 02:02:02;;;;;;;6.97;2.72;;;15.10;55.90;;;;;;5042521;28;20068;-56
2022/06/21 02:04:32;;;;;;;6.60;2.45;;;15.10;56.00;;;;;;5042174;28;20083;-59
2022/06/21 02:07:01;;;;;;;3.60;2.10;;;15.10;56.00;;;;;;5041314;28;20408;-57
2022/06/21 02:09:35;;;;;;;3.78;2.58;;;15.10;55.90;;;;;;5042021;28;20057;-56
2022/06/21 02:12:07;;;;;;;6.05;2.58;;;15.10;56.10;;;;;;5040884;28;20515;-55
2022/06/21 02:14:38;;;;;;;4.45;2.28;;;15.00;56.00;;;;;;5042234;28;20056;-57
2022/06/21 02:17:14;;;;;;;5.43;2.42;;;15.00;56.10;;;;;;5042331;28;20064;-58
2022/06/21 02:19:45;;;;;;;6.63;2.63;;;15.00;56.40;;;;;;5042279;28;20060;-56
2022/06/21 02:22:15;;;;;;;6.95;2.30;;;15.00;56.40;;;;;;5041523;28;20060;-58
2022/06/21 02:24:44;;;;;;;7.78;2.95;;;15.00;56.40;;;;;;5041691;28;20053;-59
2022/06/21 02:27:16;;;;;;;6.18;2.35;;;15.00;56.50;;;;;;5041465;28;20056;-55
2022/06/21 02:29:47;;;;;;;3.80;2.45;;;14.90;56.70;;;;;;5045091;28;20048;-57
2022/06/21 02:32:27;;;;;;;6.00;2.50;;;14.90;56.60;;;;;;5045304;28;20060;-56
2022/06/21 02:35:00;;;;;;;4.13;2.38;;;14.80;56.30;;;;;;5046252;28;20401;-57
2022/06/21 02:37:30;;;;;;;3.30;2.45;;;14.80;56.40;;;;;;5046059;28;20416;-56
2022/06/21 02:40:01;;;;;;;4.90;2.42;;;14.80;56.50;;;;;;5046106;28;20056;-59
2022/06/21 02:42:33;;;;;;;4.15;2.70;;;14.80;56.60;;;;;;5046371;28;20056;-57
2022/06/21 02:45:07;;;;;;;5.43;2.40;;;14.80;56.50;;;;;;5045181;28;20417;-54
2022/06/21 02:47:40;;;;;;;7.60;2.10;;;14.70;57.00;;;;;;5046279;28;20052;-58
2022/06/21 02:50:27;;;;;;;7.00;2.25;;;14.70;56.60;;;;;;5045271;28;20059;-57
2022/06/21 02:52:56;;;;;;;7.53;2.60;;;14.70;56.60;;;;;;5046309;28;20061;-54
2022/06/21 02:55:35;;;;;;;3.97;2.33;;;14.70;56.50;;;;;;5044740;28;20057;-59
2022/06/21 02:58:09;;;;;;;10.80;2.67;;;14.60;56.50;;;;;;5045429;28;20064;-56
2022/06/21 03:00:36;;;;;;;5.32;2.75;;;14.60;56.50;;;;;;5045287;28;20435;-55
2022/06/21 03:03:07;;;;;;;3.53;2.28;;;14.60;56.60;;;;;;5045546;28;20063;-54
2022/06/21 03:05:35;;;;;;;9.13;2.90;;;14.60;56.50;;;;;;5043050;28;20061;-59
2022/06/21 03:08:06;;;;;;;3.50;2.45;;;14.50;56.50;;;;;;5045366;28;20064;-58
2022/06/21 03:10:38;;;;;;;6.10;2.88;;;14.50;56.60;;;;;;5042816;28;20060;-57
2022/06/21 03:13:11;;;;;;;5.07;2.85;;;14.50;56.70;;;;;;5046187;28;20059;-57
2022/06/21 03:15:41;;;;;;;4.60;2.83;;;14.50;56.80;;;;;;5046279;28;20496;-58
2022/06/21 03:18:12;;;;;;;4.95;2.67;;;14.40;56.70;;;;;;5046138;28;20061;-53
2022/06/21 03:20:41;;;;;;;5.45;2.72;;;14.40;56.80;;;;;;5045097;28;20048;-57
2022/06/21 03:23:13;;;;;;;4.90;2.72;;;14.40;56.80;;;;;;5045900;28;20507;-57
2022/06/21 03:25:45;;;;;;;5.47;2.72;;;14.30;56.80;;;;;;5044125;28;20072;-59
2022/06/21 03:28:25;;;;;;;6.30;2.80;;;14.30;57.00;;;;;;5045647;28;20061;-56
2022/06/21 03:30:59;;;;;;;8.27;3.50;;;14.30;57.50;;;;;;5045307;28;20049;-54
2022/06/21 03:33:27;;;;;;;4.63;2.67;;;14.20;57.10;;;;;;5045938;28;20507;-57
2022/06/21 03:35:56;;;;;;;6.03;2.65;;;14.30;57.10;;;;;;5046027;28;20084;-57
2022/06/21 03:38:24;;;;;;;7.13;2.40;;;14.20;57.10;;;;;;5045422;28;20598;-58
2022/06/21 03:43:43;;;;;;;7.25;3.10;;;14.20;57.30;;;;;;5051554;28;20073;-57
2022/06/21 03:46:13;;;;;;;;;;;14.20;57.30;;;;;;5045479;28;20060;-57
2022/06/21 03:48:45;;;;;;;5.50;2.65;;;14.20;57.20;;;;;;5043629;28;19924;-58
2022/06/21 03:51:17;;;;;;;6.97;2.95;;;14.20;57.20;;;;;;5043134;28;20575;-54
2022/06/21 03:53:48;;;;;;;8.27;3.30;;;14.20;57.40;;;;;;5045465;28;20059;-56
2022/06/21 03:56:22;;;;;;;7.78;4.30;;;14.10;57.50;;;;;;5043348;28;20049;-55
2022/06/21 03:58:59;;;;;;;9.32;4.75;;;14.10;57.70;;;;;;5043591;28;20068;-56
2022/06/21 04:01:29;;;;;;;12.43;4.38;;;14.10;57.90;;;;;;5043703;28;20053;-57
2022/06/21 04:04:02;;;;;;;6.90;3.70;;;14.10;57.90;;;;;;5045001;28;20412;-56
2022/06/21 04:06:44;;;;;;;6.68;3.53;;;14.10;58.10;;;;;;5044088;28;20052;-58
2022/06/21 04:09:22;;;;;;;6.60;4.03;;;14.00;58.30;;;;;;5045170;28;20424;-56
2022/06/21 04:11:57;;;;;;;6.35;3.83;;;14.10;58.40;;;;;;5035884;28;20049;-57
2022/06/21 04:14:30;;;;;;;9.10;3.95;;;14.10;58.40;;;;;;5044889;28;20057;-57
2022/06/21 04:17:01;;;;;;;10.13;4.85;;;14.10;58.50;;;;;;5046178;28;20061;-54
2022/06/21 04:19:35;;;;;;;7.07;4.10;;;14.10;58.60;;;;;;5044846;28;20056;-57
2022/06/21 04:22:10;;;;;;;12.75;5.40;;;14.10;58.70;;;;;;5043440;28;20052;-53
2022/06/21 04:24:44;;;;;;;8.35;4.90;;;14.10;58.80;;;;;;5042935;28;20700;-56
2022/06/21 04:27:16;;;;;;;;;;;14.10;58.90;;;;;;5044475;28;20057;-57
2022/06/21 04:29:51;;;;;;;8.77;4.65;;;14.20;58.80;;;;;;5043798;28;19925;-57
2022/06/21 04:32:24;;;;;;;18.77;9.48;;;14.20;58.80;;;;;;5041962;28;20064;-58
2022/06/21 04:34:57;;;;;;;16.27;7.47;;;14.20;59.10;;;;;;5043210;28;20056;-54
2022/06/21 04:37:30;;;;;;;10.30;5.95;;;14.20;59.30;;;;;;5044097;28;20393;-55
2022/06/21 04:40:02;;;;;;;7.07;4.80;;;14.20;59.40;;;;;;5042689;28;20060;-59
2022/06/21 04:42:35;;;;;;;8.63;4.60;;;14.20;59.50;;;;;;5041168;28;20053;-54
2022/06/21 04:45:08;;;;;;;8.18;4.40;;;14.20;59.60;;;;;;5044277;28;20063;-57
2022/06/21 04:47:41;;;;;;;8.13;4.40;;;14.30;59.80;;;;;;5044207;28;20064;-53
2022/06/21 04:50:19;;;;;;;8.03;3.80;;;14.30;59.80;;;;;;5044010;28;20063;-56
2022/06/21 04:52:53;;;;;;;9.68;4.85;;;14.30;59.80;;;;;;5042075;28;20063;-57
2022/06/21 04:55:28;;;;;;;6.72;4.47;;;14.40;59.80;;;;;;5042936;28;20075;-57
2022/06/21 04:57:55;;;;;;;10.48;5.03;;;14.40;59.90;;;;;;5043089;28;20523;-57
2022/06/21 05:00:24;;;;;;;7.72;4.65;;;14.40;59.80;;;;;;5042886;28;20488;-59
2022/06/21 05:02:57;;;;;;;12.57;5.43;;;14.40;59.90;;;;;;5046495;28;20063;-54
2022/06/21 05:05:27;;;;;;;11.68;4.80;;;14.40;59.80;;;;;;5045383;28;20903;-53
2022/06/21 05:07:59;;;;;;;8.63;5.20;;;14.50;59.80;;;;;;5046033;28;20691;-57
2022/06/21 05:10:30;;;;;;;11.02;5.07;;;14.50;59.80;;;;;;5043507;28;20496;-58
2022/06/21 05:13:00;;;;;;;7.50;4.30;;;14.60;60.00;;;;;;5045439;28;20499;-58
2022/06/21 05:15:32;;;;;;;7.05;4.05;;;14.60;60.00;;;;;;5043424;28;20423;-56
2022/06/21 05:18:03;;;;;;;7.38;4.13;;;14.60;60.00;;;;;;5041435;28;20392;-56
2022/06/21 05:20:35;;;;;;;6.30;3.45;;;14.60;60.00;;;;;;5043434;28;20057;-57
2022/06/21 05:23:06;;;;;;;8.25;3.90;;;14.70;60.20;;;;;;5043939;28;20052;-58
2022/06/21 05:25:38;;;;;;;12.45;4.40;;;14.70;60.20;;;;;;5043045;28;20431;-58
2022/06/21 05:28:14;;;;;;;6.35;3.45;;;14.80;60.40;;;;;;5044699;28;20053;-57
2022/06/21 05:30:49;;;;;;;7.13;3.45;;;14.80;60.30;;;;;;5044203;28;20052;-57
2022/06/21 05:33:21;;;;;;;5.47;3.53;;;14.80;60.40;;;;;;5043568;28;20056;-58
2022/06/21 05:35:49;;;;;;;12.15;4.20;;;14.90;60.50;;;;;;5042836;28;20067;-57
2022/06/21 05:38:21;;;;;;;8.45;4.03;;;14.90;60.60;;;;;;5043686;28;20060;-58
2022/06/21 05:40:54;;;;;;;8.02;4.03;;;15.00;60.90;;;;;;5040972;28;20634;-56
2022/06/21 05:43:27;;;;;;;8.65;4.43;;;15.10;61.20;;;;;;5044591;28;20075;-57
2022/06/21 05:46:00;;;;;;;5.88;4.22;;;15.10;61.30;;;;;;5041943;28;20056;-57
2022/06/21 05:48:32;;;;;;;8.25;4.28;;;15.20;61.30;;;;;;5043227;28;20056;-56
2022/06/21 05:51:02;;;;;;;8.45;4.88;;;15.30;61.50;;;;;;5040399;28;20052;-59
2022/06/21 05:53:34;;;;;;;7.90;3.80;;;15.30;61.60;;;;;;5043094;28;20068;-58
2022/06/21 05:56:08;;;;;;;5.70;3.85;;;15.40;61.70;;;;;;5041539;28;20057;-56
2022/06/21 05:58:42;;;;;;;5.88;4.10;;;15.50;61.90;;;;;;5041081;28;20064;-55
2022/06/21 06:01:15;;;;;;;;;;;15.50;61.90;;;;;;5043944;28;20052;-58
2022/06/21 06:03:47;;;;;;;6.25;3.88;;;15.70;61.80;;;;;;5041542;28;19928;-56
2022/06/21 06:06:19;;;;;;;9.02;4.10;;;15.80;61.70;;;;;;5041872;28;20048;-58
2022/06/21 06:08:52;;;;;;;7.35;4.15;;;15.80;61.80;;;;;;5042538;28;20057;-59
2022/06/21 06:11:24;;;;;;;11.18;3.70;;;15.90;62.00;;;;;;5041379;28;20442;-57
2022/06/21 06:13:54;;;;;;;7.03;4.00;;;16.00;62.00;;;;;;5041950;28;20602;-56
2022/06/21 06:16:36;;;;;;;5.93;3.50;;;16.00;61.70;;;;;;5041610;28;20530;-54
2022/06/21 06:19:10;;;;;;;6.05;3.40;;;16.10;61.80;;;;;;5042314;28;20060;-54
2022/06/21 06:21:44;;;;;;;10.80;4.05;;;16.20;61.60;;;;;;5042062;28;20060;-56
2022/06/21 06:24:18;;;;;;;6.80;3.47;;;16.30;61.30;;;;;;5041902;28;20497;-55
2022/06/21 06:26:48;;;;;;;6.20;3.47;;;16.40;61.00;;;;;;5039961;28;20064;-56
2022/06/21 06:29:23;;;;;;;6.97;3.00;;;16.50;60.80;;;;;;5041882;28;20053;-59
2022/06/21 06:31:59;;;;;;;8.57;3.17;;;16.50;60.70;;;;;;5042089;28;20060;-59
2022/06/21 06:34:30;;;;;;;7.60;3.58;;;16.70;60.60;;;;;;5041631;28;20052;-57
2022/06/21 06:37:03;;;;;;;5.47;3.70;;;16.70;60.60;;;;;;5042045;28;20511;-58
2022/06/21 06:39:34;;;;;;;6.73;3.20;;;16.80;60.50;;;;;;5042341;28;20057;-58
2022/06/21 06:42:05;;;;;;;6.13;3.30;;;16.90;60.30;;;;;;5042070;28;20412;-53
2022/06/21 06:44:37;;;;;;;6.45;3.63;;;17.00;59.90;;;;;;5042013;28;20060;-57
2022/06/21 06:47:13;;;;;;;6.25;3.75;;;17.00;59.90;;;;;;5042265;28;20056;-57
2022/06/21 06:49:45;;;;;;;4.93;2.78;;;17.10;60.10;;;;;;5041912;28;20053;-58
2022/06/21 06:52:18;;;;;;;4.50;3.15;;;17.20;60.10;;;;;;5041576;28;20056;-55
2022/06/21 06:54:50;;;;;;;6.40;3.25;;;17.30;59.80;;;;;;5041816;28;20053;-56
2022/06/21 06:57:24;;;;;;;9.38;3.17;;;17.40;59.90;;;;;;5039992;28;20488;-56
2022/06/21 06:59:52;;;;;;;8.45;3.80;;;17.50;59.50;;;;;;5042280;28;20049;-55
2022/06/21 07:02:28;;;;;;;6.28;2.50;;;17.50;59.50;;;;;;5042449;28;20057;-56
2022/06/21 07:05:05;;;;;;;5.47;2.80;;;17.60;59.40;;;;;;5042115;28;20064;-52
2022/06/21 07:07:41;;;;;;;8.13;2.75;;;17.70;59.20;;;;;;5042310;28;20059;-58
2022/06/21 07:10:14;;;;;;;4.93;2.70;;;17.80;59.00;;;;;;5041330;28;20052;-58
2022/06/21 07:12:41;;;;;;;6.30;2.47;;;17.90;58.50;;;;;;5041994;28;20416;-54
2022/06/21 07:15:12;;;;;;;6.15;2.83;;;18.00;58.40;;;;;;5041754;28;20060;-56
2022/06/21 07:17:44;;;;;;;4.57;2.40;;;18.10;58.40;;;;;;5046458;28;20531;-54
2022/06/21 07:20:17;;;;;;;5.28;2.30;;;18.10;58.00;;;;;;5043979;28;20059;-56
2022/06/21 07:22:45;;;;;;;9.20;2.63;;;18.20;58.20;;;;;;5044914;28;20072;-55
2022/06/21 07:25:20;;;;;;;6.28;2.88;;;18.30;57.70;;;;;;5043934;28;20055;-59
2022/06/21 07:27:52;;;;;;;5.57;2.50;;;18.40;57.30;;;;;;5044226;28;20056;-56
2022/06/21 07:30:22;;;;;;;5.90;2.33;;;18.40;57.40;;;;;;5043914;28;20056;-56
2022/06/21 07:32:55;;;;;;;3.58;2.17;;;18.50;57.00;;;;;;5044934;28;20049;-57
2022/06/21 07:35:28;;;;;;;10.02;2.72;;;18.60;57.10;;;;;;5045833;28;20053;-60
2022/06/21 07:38:02;;;;;;;8.95;3.03;;;18.70;57.10;;;;;;5046140;28;20053;-55
2022/06/21 07:40:33;;;;;;;7.75;2.67;;;18.80;56.60;;;;;;5042438;28;20068;-57
2022/06/21 07:43:05;;;;;;;7.45;2.63;;;18.80;56.60;;;;;;5045273;28;20416;-58
2022/06/21 07:45:38;;;;;;;8.40;2.55;;;19.00;56.50;;;;;;5045143;28;20519;-55
2022/06/21 07:48:13;;;;;;;3.87;2.40;;;19.00;56.40;;;;;;5044608;28;20057;-55
2022/06/21 07:50:44;;;;;;;7.30;2.50;;;19.10;56.20;;;;;;5045106;28;20053;-57
2022/06/21 07:53:20;;;;;;;6.95;2.47;;;19.20;55.80;;;;;;5044538;28;20056;-60
2022/06/21 07:55:51;;;;;;;7.75;2.55;;;19.30;55.70;;;;;;5043982;28;20064;-59
2022/06/21 07:58:25;;;;;;;6.32;3.05;;;19.40;55.10;;;;;;5044891;28;20059;-60
2022/06/21 08:06:43;;;;;;;6.13;2.30;;;19.50;54.50;;;;;;5045267;28;20388;-53
2022/06/21 08:09:21;;;;;;;7.90;2.80;;;19.50;54.60;;;;;;5044807;28;20489;-54
2022/06/21 08:11:50;;;;;;;5.03;2.40;;;19.60;54.40;;;;;;5042082;28;20060;-55
2022/06/21 08:14:18;;;;;;;8.55;2.50;;;19.60;54.30;;;;;;5044362;28;20053;-57
2022/06/21 08:16:51;;;;;;;4.35;2.08;;;19.70;54.50;;;;;;5045006;28;20411;-55
2022/06/21 08:19:26;;;;;;;4.28;2.58;;;19.80;54.30;;;;;;5044486;28;20049;-55
2022/06/21 08:21:59;;;;;;;5.78;2.50;;;19.80;53.90;;;;;;5044049;28;20409;-57
2022/06/21 08:24:32;;;;;;;5.63;1.95;;;19.90;53.40;;;;;;5043266;28;20060;-51
2022/06/21 08:27:10;;;;;;;5.05;2.20;;;20.00;53.20;;;;;;5043222;28;20068;-50
2022/06/21 08:29:43;;;;;;;7.03;2.05;;;20.10;52.90;;;;;;5045139;28;20484;-50
2022/06/21 08:32:15;;;;;;;6.30;2.90;;;20.20;52.90;;;;;;5044477;28;20048;-49
2022/06/21 08:34:47;;;;;;;7.88;2.85;;;20.20;52.10;;;;;;5045254;28;20493;-53
2022/06/21 08:37:22;;;;;;;6.63;3.00;;;20.30;51.40;;;;;;5043937;28;20060;-55
2022/06/21 08:39:55;;;;;;;7.72;2.38;;;20.40;51.30;;;;;;5043688;28;20052;-50
2022/06/21 08:42:45;;;;;;;8.70;2.60;;;20.50;51.00;;;;;;5042569;28;20048;-48
2022/06/21 08:45:49;;;;;;;7.57;2.92;;;20.50;50.30;;;;;;5043529;28;20057;-55
2022/06/21 08:48:43;;;;;;;6.05;1.95;;;20.60;50.40;;;;;;5043739;28;20052;-50
2022/06/21 08:51:38;;;;;;;4.35;2.30;;;20.60;50.10;;;;;;5041675;28;20057;-52
2022/06/21 08:54:15;;;;;;;4.38;1.50;;;20.70;49.70;;;;;;5044509;28;20052;-54
2022/06/21 08:56:49;;;;;;;4.40;2.47;;;20.70;49.90;;;;;;5043059;28;20064;-56
2022/06/21 08:59:27;;;;;;;6.18;2.00;;;20.80;50.00;;;;;;5043462;28;20057;-55
2022/06/21 09:02:06;;;;;;;4.43;1.73;;;20.80;50.30;;;;;;5043399;28;20049;-49
2022/06/21 09:04:46;;;;;;;5.88;2.08;;;20.90;49.90;;;;;;5042666;28;20049;-50
2022/06/21 09:07:59;;;;;;;7.28;2.08;;;20.90;49.70;;;;;;5043655;28;20045;-53
2022/06/21 09:10:38;;;;;;;3.03;1.60;;;21.00;49.30;;;;;;5042323;28;20127;-50
2022/06/21 09:13:22;;;;;;;4.03;1.85;;;21.10;49.20;;;;;;5043463;28;20065;-49
2022/06/21 09:15:52;;;;;;;;;;;21.10;49.00;;;;;;5043718;28;20053;-52
2022/06/21 09:18:30;;;;;;;5.65;1.80;;;21.20;49.60;;;;;;5043939;28;19921;-54
2022/06/21 09:21:05;;;;;;;2.78;1.73;;;21.30;49.30;;;;;;5041655;28;20057;-51
2022/06/21 09:23:52;;;;;;;4.93;1.60;;;21.30;49.70;;;;;;5042497;28;20060;-52
2022/06/21 09:26:30;;;;;;;3.60;1.90;;;21.30;48.50;;;;;;5042347;28;20053;-50
2022/06/21 09:29:07;;;;;;;7.85;2.50;;;21.30;49.00;;;;;;5042706;28;20048;-54
2022/06/21 09:31:46;;;;;;;5.10;2.05;;;21.40;49.40;;;;;;5042571;28;21061;-53
2022/06/21 09:34:22;;;;;;;5.10;2.30;;;21.50;49.60;;;;;;5043114;28;20056;-52
2022/06/21 09:36:56;;;;;;;4.95;2.25;;;21.50;49.30;;;;;;5042075;28;20068;-52
2022/06/21 09:39:30;;;;;;;;;;;21.60;49.20;;;;;;5043948;28;20057;-53
2022/06/21 09:42:14;;;;;;;4.90;2.17;;;21.70;49.40;;;;;;5040267;28;19924;-52
2022/06/21 09:44:48;;;;;;;7.90;2.60;;;21.70;48.70;;;;;;5042478;28;20052;-54
2022/06/21 09:47:22;;;;;;;4.10;1.73;;;21.80;48.50;;;;;;5042271;28;20507;-52
2022/06/21 09:49:52;;;;;;;;;;;21.80;48.10;;;;;;5042625;28;20487;-55
2022/06/21 09:52:30;;;;;;;4.05;2.03;;;21.90;48.80;;;;;;5043098;28;19920;-54
2022/06/21 09:55:11;;;;;;;7.55;2.78;;;21.90;48.50;;;;;;5042984;28;20072;-53
2022/06/21 09:58:02;;;;;;;4.55;1.98;;;22.00;47.90;;;;;;5043098;28;20053;-53
2022/06/21 10:00:41;;;;;;;7.15;3.20;;;22.10;48.10;;;;;;5041133;28;20053;-52
2022/06/21 10:03:28;;;;;;;5.45;2.10;;;22.20;48.40;;;;;;5040631;28;20048;-54
2022/06/21 10:06:06;;;;;;;5.10;2.00;;;22.20;47.70;;;;;;5042204;28;20060;-54
2022/06/21 10:08:57;;;;;;;3.85;1.70;;;22.30;48.10;;;;;;5041836;28;20063;-59
2022/06/21 10:11:35;;;;;;;2.97;1.70;;;22.40;47.80;;;;;;5040612;28;20064;-57
2022/06/21 10:14:22;;;;;;;6.35;2.17;;;22.50;47.70;;;;;;5043580;28;20045;-53
2022/06/21 10:17:02;;;;;;;10.23;2.58;;;22.50;47.40;;;;;;5042762;28;20073;-57
2022/06/21 10:19:40;;;;;;;5.95;2.05;;;22.60;46.30;;;;;;5043068;28;20501;-53
2022/06/21 10:22:21;;;;;;;6.35;2.55;;;22.60;46.70;;;;;;5042992;28;20056;-50
2022/06/21 10:25:21;;;;;;;6.47;2.05;;;22.60;45.60;;;;;;5043056;28;20048;-55
2022/06/21 10:28:16;;;;;;;5.22;1.98;;;22.70;45.70;;;;;;5041968;28;20630;-57
2022/06/21 10:31:26;;;;;;;4.88;1.58;;;22.70;46.00;;;;;;5039707;28;20063;-56
2022/06/21 10:34:21;;;;;;;4.28;2.05;;;22.80;47.60;;;;;;5033552;28;20055;-58
2022/06/21 10:37:00;;;;;;;4.93;2.05;;;22.80;46.90;;;;;;5041656;28;20052;-56
2022/06/21 10:39:59;;;;;;;6.97;2.05;;;22.90;46.80;;;;;;5041720;28;20060;-55
2022/06/21 10:42:47;;;;;;;5.65;2.10;;;22.90;46.50;;;;;;5041580;28;20056;-56
2022/06/21 10:45:31;;;;;;;3.17;1.90;;;23.00;46.50;;;;;;5042449;28;20052;-58
2022/06/21 10:48:12;;;;;;;2.70;1.27;;;23.10;46.10;;;;;;5041979;28;20416;-52
2022/06/21 10:50:49;;;;;;;3.55;1.20;;;23.10;46.00;;;;;;5045725;28;20049;-56
2022/06/21 10:53:35;;;;;;;4.30;1.70;;;23.20;45.80;;;;;;5046415;28;20080;-54
2022/06/21 10:59:11;;;;;;;4.22;1.38;;;23.40;45.80;;;;;;5051528;28;20052;-56
2022/06/21 11:01:44;;;;;;;3.28;1.25;;;23.40;45.60;;;;;;5044896;28;20072;-60
2022/06/21 11:04:19;;;;;;;;;;;23.50;45.50;;;;;;5047350;28;20053;-58
2022/06/21 11:06:51;;;;;;;5.00;1.40;;;23.60;45.90;;;;;;5044416;28;19928;-51
2022/06/21 11:09:24;;;;;;;3.55;1.55;;;23.70;45.40;;;;;;5045835;28;20436;-52
2022/06/21 11:11:58;;;;;;;3.73;1.50;;;23.70;44.90;;;;;;5043785;28;20053;-53
2022/06/21 11:14:37;;;;;;;5.75;1.40;;;23.70;44.40;;;;;;5045177;28;20059;-57
2022/06/21 11:17:15;;;;;;;5.75;1.67;;;23.80;44.00;;;;;;5046232;28;20056;-56
2022/06/21 11:19:51;;;;;;;5.15;2.03;;;23.80;43.90;;;;;;5045564;28;20053;-52
2022/06/21 11:22:37;;;;;;;3.75;1.33;;;23.80;43.80;;;;;;5909159;23;20035;-88
2022/06/21 11:25:21;;;;;;;5.03;1.27;;;23.80;43.70;;;;;;5005295;28;20054;-88
2022/06/21 11:27:59;;;;;;;3.53;1.48;;;23.90;43.40;;;;;;5007643;28;20054;-85
2022/06/21 11:30:38;;;;;;;4.75;1.65;;;23.90;44.00;;;;;;5009144;28;20057;-85
2022/06/21 11:33:13;;;;;;;2.60;1.30;;;23.80;43.60;;;;;;5010367;28;20462;-85
2022/06/21 11:35:49;;;;;;;6.07;2.03;;;23.80;43.40;;;;;;5009610;28;20511;-85
2022/06/21 11:38:36;;;;;;;3.42;1.55;;;23.80;42.80;;;;;;5010392;28;20402;-87
2022/06/21 11:41:09;;;;;;;3.13;1.48;;;23.80;43.30;;;;;;5009663;28;20500;-86
2022/06/21 11:43:54;;;;;;;5.20;1.50;;;23.70;43.50;;;;;;5012518;28;20428;-85
2022/06/21 11:46:31;;;;;;;3.53;1.65;;;23.70;43.60;;;;;;5011667;28;20488;-86
2022/06/21 11:49:39;;;;;;;2.80;1.13;;;23.70;43.40;;;;;;5007488;28;20056;-86
2022/06/21 11:52:39;;;;;;;5.57;1.40;;;23.60;43.80;;;;;;5005266;28;20054;-86
2022/06/21 11:55:21;;;;;;;2.28;1.13;;;23.60;44.10;;;;;;5007223;28;20049;-86
2022/06/21 11:57:53;;;;;;;3.17;1.40;;;23.60;43.70;;;;;;5007110;28;20058;-86
2022/06/21 12:00:28;;;;;;;4.90;1.38;;;23.50;43.70;;;;;;5007518;28;20053;-86
2022/06/21 12:02:57;;;;;;;5.28;1.60;;;23.50;43.50;;;;;;5011797;28;20053;-86
2022/06/21 12:05:38;;;;;;;5.85;1.77;;;23.50;43.60;;;;;;5010576;28;20050;-86
2022/06/21 12:08:16;;;;;;;1.77;1.08;;;23.50;43.30;;;;;;5017052;28;20418;-86
2022/06/21 12:10:52;;;;;;;3.63;1.33;;;23.40;43.40;;;;;;5014736;28;20087;-85
2022/06/21 12:13:30;;;;;;;3.92;1.10;;;23.40;43.10;;;;;;5018424;28;20065;-85
2022/06/21 12:16:16;;;;;;;3.15;1.30;;;23.50;43.30;;;;;;5014080;28;20080;-86
2022/06/21 12:18:49;;;;;;;2.05;1.20;;;23.50;43.50;;;;;;5012192;28;20477;-86
2022/06/21 12:21:21;;;;;;;1.65;1.02;;;23.60;43.20;;;;;;5017058;28;20060;-86
2022/06/21 12:23:53;;;;;;;3.85;1.25;;;23.60;42.80;;;;;;5024442;28;20053;-86
2022/06/21 12:26:24;;;;;;;2.72;1.27;;;23.60;43.10;;;;;;5025300;28;20512;-87
2022/06/21 12:28:53;;;;;;;5.45;1.40;;;23.70;43.10;;;;;;5037256;28;20468;-86
2022/06/21 12:31:24;;;;;;;3.92;1.48;;;23.70;43.10;;;;;;5033032;28;20061;-86
2022/06/21 12:33:56;;;;;;;2.97;1.38;;;23.70;43.00;;;;;;5032992;28;20060;-86
2022/06/21 12:36:42;;;;;;;4.47;1.48;;;23.80;43.20;;;;;;5030818;28;20064;-86
2022/06/21 12:39:17;;;;;;;2.70;1.25;;;23.80;43.00;;;;;;5032431;28;20045;-87
2022/06/21 12:41:59;;;;;;;6.70;1.60;;;23.80;43.10;;;;;;5033267;28;20086;-87
2022/06/21 12:44:38;;;;;;;6.97;1.65;;;23.90;43.40;;;;;;5027524;28;20515;-87
2022/06/21 12:47:23;;;;;;;4.38;1.42;;;24.00;43.00;;;;;;5032460;28;20056;-86
2022/06/21 12:50:37;;;;;;;2.65;1.48;;;24.00;42.60;;;;;;5032561;28;20785;-86
2022/06/21 12:53:29;;;;;;;2.53;1.15;;;24.10;42.50;;;;;;5033966;28;20064;-86
2022/06/21 12:56:04;;;;;;;4.30;1.63;;;24.10;42.50;;;;;;5029918;28;20045;-87
2022/06/21 12:58:44;;;;;;;4.22;1.40;;;24.20;41.80;;;;;;5028354;28;20041;-87
2022/06/21 13:01:19;;;;;;;2.65;1.23;;;24.30;42.20;;;;;;5026128;28;20049;-86
2022/06/21 13:04:03;;;;;;;3.20;1.40;;;24.30;42.20;;;;;;5029109;28;20417;-86
2022/06/21 13:06:49;;;;;;;4.40;1.65;;;24.30;41.90;;;;;;5026076;28;20516;-86
2022/06/21 13:12:44;;;;;;;2.72;1.35;;;24.40;42.70;;;;;;5093362;27;1349586;-48
2022/06/21 13:15:41;;;;;;;2.83;1.15;;;24.50;42.10;;;;;;5133907;27;20405;-54
2022/06/21 13:18:40;;;;;;;4.00;1.50;;;24.50;41.20;;;;;;5134751;27;20053;-56
2022/06/21 13:21:15;;;;;;;5.18;1.38;;;24.60;40.80;;;;;;5132815;27;20401;-52
2022/06/21 13:23:59;;;;;;;4.75;1.50;;;24.60;41.90;;;;;;5125599;27;20048;-52
2022/06/21 13:26:53;;;;;;;2.30;1.58;;;24.60;41.60;;;;;;5113345;27;20055;-51
2022/06/21 13:29:32;;;;;;;5.03;1.73;;;24.60;41.50;;;;;;5119372;27;20070;-55
2022/06/21 13:32:05;;;;;;;4.22;1.60;;;24.70;40.80;;;;;;5115778;27;20497;-49
2022/06/21 13:34:39;;;;;;;2.70;1.40;;;24.70;41.40;;;;;;5116926;27;20655;-53
2022/06/21 13:37:24;;;;;;;;;;;24.60;40.10;;;;;;5112540;27;20056;-54
2022/06/21 13:40:02;;;;;;;3.45;1.40;;;24.70;41.20;;;;;;5117600;27;19931;-53
2022/06/21 13:42:40;;;;;;;2.63;1.30;;;24.70;40.90;;;;;;5117889;27;20051;-54
2022/06/21 13:45:39;;;;;;;3.15;1.15;;;24.70;41.00;;;;;;5118044;27;20051;-52